createdAt,value
2023-03-17T00:01:20.836Z,5.47
2023-03-17T00:03:49.891Z,5.05
2023-03-17T00:06:20.450Z,5.60
2023-03-17T00:08:48.349Z,5.57
2023-03-17T00:11:18.024Z,5.57
2023-03-17T00:13:47.091Z,6.18
2023-03-17T00:16:20.112Z,5.85
2023-03-17T00:18:48.402Z,5.50
2023-03-17T00:21:22.940Z,5.50
2023-03-17T00:23:51.882Z,5.45
2023-03-17T00:26:20.236Z,5.47
2023-03-17T00:28:49.107Z,5.90
2023-03-17T00:31:21.005Z,5.65
2023-03-17T00:33:52.136Z,5.80
2023-03-17T00:36:23.960Z,5.53
2023-03-17T00:38:52.562Z,5.75
2023-03-17T00:41:20.897Z,5.47
2023-03-17T00:43:49.301Z,5.88
2023-03-17T00:46:25.255Z,5.45
2023-03-17T00:48:54.255Z,5.75
2023-03-17T00:51:22.236Z,5.05
2023-03-17T00:53:50.136Z,5.25
2023-03-17T00:56:20.774Z,5.43
2023-03-17T00:58:49.749Z,5.45
2023-03-17T01:01:19.848Z,5.72
2023-03-17T01:03:48.450Z,5.40
2023-03-17T01:06:17.610Z,5.47
2023-03-17T01:08:46.611Z,5.28
2023-03-17T01:11:18.653Z,5.38
2023-03-17T01:13:48.646Z,6.05
2023-03-17T01:16:18.025Z,5.30
2023-03-17T01:18:46.051Z,5.32
2023-03-17T01:21:14.031Z,5.18
2023-03-17T01:23:42.104Z,5.90
2023-03-17T01:26:10.170Z,5.22
2023-03-17T01:28:39.162Z,5.30
2023-03-17T01:31:07.047Z,4.88
2023-03-17T01:33:36.453Z,5.68
2023-03-17T01:36:04.376Z,5.05
2023-03-17T01:38:32.503Z,5.60
2023-03-17T01:41:02.242Z,5.22
2023-03-17T01:43:31.560Z,5.38
2023-03-17T01:46:26.104Z,5.25
2023-03-17T01:49:04.185Z,5.60
2023-03-17T01:51:35.804Z,5.50
2023-03-17T01:54:09.230Z,5.30
2023-03-17T01:56:39.560Z,5.47
2023-03-17T01:59:10.994Z,5.93
2023-03-17T02:01:42.631Z,5.88
2023-03-17T02:04:12.935Z,5.65
2023-03-17T02:06:55.266Z,5.72
2023-03-17T02:09:25.469Z,5.80
2023-03-17T02:11:53.685Z,5.57
2023-03-17T02:14:22.466Z,5.65
2023-03-17T02:16:50.491Z,5.30
2023-03-17T02:19:19.874Z,5.13
2023-03-17T02:21:51.920Z,6.18
2023-03-17T02:24:28.825Z,6.15
2023-03-17T02:27:03.732Z,6.07
2023-03-17T02:29:36.053Z,5.93
2023-03-17T02:32:05.437Z,6.20
2023-03-17T02:34:33.681Z,6.43
2023-03-17T02:37:03.115Z,6.07
2023-03-17T02:39:32.211Z,5.95
2023-03-17T02:42:00.470Z,5.70
2023-03-17T02:44:28.391Z,5.90
2023-03-17T02:46:56.570Z,5.90
2023-03-17T02:49:27.096Z,6.18
2023-03-17T02:51:55.158Z,6.70
2023-03-17T02:54:24.509Z,6.47
2023-03-17T02:56:52.742Z,5.75
2023-03-17T02:59:20.734Z,6.10
2023-03-17T03:01:50.546Z,6.00
2023-03-17T03:04:19.108Z,6.30
2023-03-17T03:06:47.623Z,5.47
2023-03-17T03:09:17.746Z,6.25
2023-03-17T03:11:47.472Z,5.97
2023-03-17T03:14:15.393Z,6.50
2023-03-17T03:16:43.424Z,6.20
2023-03-17T03:19:11.533Z,6.07
2023-03-17T03:21:39.519Z,5.90
2023-03-17T03:24:08.532Z,5.90
2023-03-17T03:26:36.995Z,6.18
2023-03-17T03:29:06.851Z,6.18
2023-03-17T03:31:34.826Z,6.32
2023-03-17T03:34:02.788Z,6.32
2023-03-17T03:36:30.657Z,6.45
2023-03-17T03:38:59.729Z,5.75
2023-03-17T03:41:27.731Z,5.72
2023-03-17T03:43:55.580Z,5.93
2023-03-17T03:46:26.559Z,5.68
2023-03-17T03:48:54.721Z,6.03
2023-03-17T03:51:22.643Z,5.70
2023-03-17T03:53:50.595Z,6.10
2023-03-17T03:56:18.483Z,5.70
2023-03-17T03:58:46.592Z,5.65
2023-03-17T04:01:14.574Z,5.72
2023-03-17T04:03:43.870Z,6.00
2023-03-17T04:06:11.782Z,5.63
2023-03-17T04:08:39.681Z,5.70
2023-03-17T04:11:08.675Z,5.65
2023-03-17T04:13:36.936Z,5.65
2023-03-17T04:16:04.895Z,5.85
2023-03-17T04:18:32.908Z,5.82
2023-03-17T04:21:02.482Z,5.57
2023-03-17T04:23:31.445Z,5.95
2023-03-17T04:25:59.402Z,5.70
2023-03-17T04:28:27.375Z,5.20
2023-03-17T04:30:55.275Z,5.28
2023-03-17T04:33:23.160Z,5.22
2023-03-17T04:35:51.309Z,4.97
2023-03-17T04:38:20.618Z,5.43
2023-03-17T04:40:48.549Z,5.00
2023-03-17T04:43:16.770Z,4.85
2023-03-17T04:45:44.679Z,5.35
2023-03-17T04:48:12.637Z,4.57
2023-03-17T04:50:40.517Z,5.22
2023-03-17T04:53:09.024Z,4.68
2023-03-17T04:55:38.273Z,4.80
2023-03-17T04:58:06.161Z,5.13
2023-03-17T05:00:38.624Z,5.10
2023-03-17T05:03:19.984Z,5.10
2023-03-17T05:05:53.868Z,5.15
2023-03-17T05:08:21.937Z,5.07
2023-03-17T05:10:54.913Z,4.82
2023-03-17T05:13:23.808Z,5.13
2023-03-17T05:15:53.432Z,4.70
2023-03-17T05:18:23.212Z,4.55
2023-03-17T05:20:51.292Z,5.63
2023-03-17T05:23:19.327Z,5.18
2023-03-17T05:25:48.245Z,5.40
2023-03-17T05:28:18.216Z,4.50
2023-03-17T05:30:46.361Z,4.85
2023-03-17T05:33:14.532Z,4.95
2023-03-17T05:35:42.488Z,4.45
2023-03-17T05:38:12.875Z,4.82
2023-03-17T05:40:41.062Z,5.03
2023-03-17T05:43:09.224Z,4.80
2023-03-17T05:45:39.140Z,4.70
2023-03-17T05:48:07.483Z,5.10
2023-03-17T05:50:35.925Z,4.75
2023-03-17T05:53:03.790Z,4.50
2023-03-17T05:55:31.699Z,4.88
2023-03-17T05:58:00.867Z,4.85
2023-03-17T06:00:29.309Z,3.83
2023-03-17T06:02:58.809Z,4.20
2023-03-17T06:05:27.142Z,4.20
2023-03-17T06:07:56.582Z,4.03
2023-03-17T06:10:25.434Z,4.05
2023-03-17T06:12:53.406Z,3.92
2023-03-17T06:15:21.907Z,4.07
2023-03-17T06:17:49.788Z,3.80
2023-03-17T06:20:19.908Z,3.70
2023-03-17T06:23:02.842Z,3.95
2023-03-17T06:25:32.571Z,3.65
2023-03-17T06:28:02.335Z,4.10
2023-03-17T06:30:31.290Z,3.67
2023-03-17T06:33:00.169Z,3.78
2023-03-17T06:35:30.432Z,4.20
2023-03-17T06:37:58.946Z,4.18
2023-03-17T06:40:26.852Z,4.18
2023-03-17T06:42:54.774Z,4.03
2023-03-17T06:45:22.731Z,4.10
2023-03-17T06:47:50.632Z,4.00
2023-03-17T06:50:18.794Z,4.10
2023-03-17T06:52:48.065Z,4.03
2023-03-17T06:55:16.131Z,4.00
2023-03-17T06:57:44.048Z,3.55
2023-03-17T07:00:14.098Z,4.20
2023-03-17T07:02:43.086Z,4.15
2023-03-17T07:05:12.574Z,4.22
2023-03-17T07:07:40.943Z,3.53
2023-03-17T07:10:13.715Z,3.83
2023-03-17T07:12:41.645Z,4.20
2023-03-17T07:15:11.047Z,3.83
2023-03-17T07:17:39.352Z,4.00
2023-03-17T07:20:07.883Z,4.28
2023-03-17T07:22:36.314Z,3.60
2023-03-17T07:25:04.873Z,3.72
2023-03-17T07:27:34.164Z,3.08
2023-03-17T07:30:04.342Z,3.45
2023-03-17T07:32:32.484Z,3.30
2023-03-17T07:35:00.470Z,3.65
2023-03-17T07:37:28.381Z,3.28
2023-03-17T07:39:56.873Z,3.22
2023-03-17T07:42:24.896Z,3.17
2023-03-17T07:44:54.120Z,3.70
2023-03-17T07:47:22.047Z,2.75
2023-03-17T07:49:50.141Z,3.00
2023-03-17T07:52:18.074Z,2.75
2023-03-17T07:54:46.238Z,3.05
2023-03-17T07:57:16.578Z,2.95
2023-03-17T07:59:44.513Z,2.80
2023-03-17T08:02:16.752Z,2.80
2023-03-17T08:04:45.358Z,2.60
2023-03-17T08:07:14.619Z,2.40
2023-03-17T08:09:42.808Z,2.50
2023-03-17T08:12:11.704Z,2.22
2023-03-17T08:14:39.980Z,2.65
2023-03-17T08:17:08.139Z,2.55
2023-03-17T08:19:37.668Z,2.28
2023-03-17T08:22:06.050Z,2.28
2023-03-17T08:24:34.288Z,2.15
2023-03-17T08:27:02.414Z,2.20
2023-03-17T08:29:30.402Z,1.90
2023-03-17T08:31:58.399Z,2.20
2023-03-17T08:34:26.567Z,2.05
2023-03-17T08:36:56.557Z,2.45
2023-03-17T08:39:24.527Z,2.35
2023-03-17T08:41:52.863Z,2.40
2023-03-17T08:44:21.795Z,2.42
2023-03-17T08:46:50.136Z,1.90
2023-03-17T08:49:18.034Z,1.90
2023-03-17T08:51:46.194Z,1.75
2023-03-17T08:54:15.807Z,1.88
2023-03-17T08:56:43.797Z,2.08
2023-03-17T08:59:12.456Z,1.90
2023-03-17T09:01:41.990Z,2.08
2023-03-17T09:04:11.049Z,1.90
2023-03-17T09:06:44.079Z,1.90
2023-03-17T09:09:18.305Z,1.90
2023-03-17T09:11:46.487Z,1.80
2023-03-17T09:14:15.294Z,1.90
2023-03-17T09:16:43.331Z,2.00
2023-03-17T09:19:11.342Z,1.73
2023-03-17T09:21:39.204Z,1.80
2023-03-17T09:24:07.276Z,1.50
2023-03-17T09:26:36.913Z,1.95
2023-03-17T09:29:05.222Z,1.50
2023-03-17T09:31:33.680Z,1.95
2023-03-17T09:34:01.630Z,1.40
2023-03-17T09:36:29.572Z,1.42
2023-03-17T09:38:57.503Z,1.30
2023-03-17T09:41:46.048Z,1.35
2023-03-17T09:44:25.395Z,1.20
2023-03-17T09:47:04.194Z,1.58
2023-03-17T09:49:40.250Z,1.42
2023-03-17T09:52:15.189Z,1.50
2023-03-17T09:54:43.767Z,1.38
2023-03-17T09:57:16.998Z,1.23
2023-03-17T09:59:47.280Z,1.10
2023-03-17T10:02:22.159Z,1.15
2023-03-17T10:04:50.163Z,1.10
2023-03-17T10:07:22.485Z,1.10
2023-03-17T10:09:59.179Z,1.10
2023-03-17T10:12:41.041Z,1.00
2023-03-17T10:15:18.414Z,1.15
2023-03-17T10:17:47.201Z,1.13
2023-03-17T10:20:19.270Z,1.08
2023-03-17T10:22:49.020Z,1.10
2023-03-17T10:25:19.270Z,1.20
2023-03-17T10:27:53.801Z,1.33
2023-03-17T10:30:24.073Z,1.20
2023-03-17T10:32:52.868Z,1.25
2023-03-17T10:35:22.065Z,1.38
2023-03-17T10:37:50.549Z,1.08
2023-03-17T10:40:23.084Z,1.10
2023-03-17T10:42:55.811Z,1.02
2023-03-17T10:45:29.148Z,1.10
2023-03-17T10:47:58.177Z,1.17
2023-03-17T10:50:30.304Z,1.17
2023-03-17T10:53:00.712Z,0.83
2023-03-17T10:55:30.761Z,1.10
2023-03-17T10:58:05.076Z,1.17
2023-03-17T11:00:36.255Z,1.10
2023-03-17T11:03:12.065Z,0.95
2023-03-17T11:05:40.357Z,0.85
2023-03-17T11:08:12.570Z,0.85
2023-03-17T11:10:41.895Z,1.10
2023-03-17T11:13:16.486Z,1.10
2023-03-17T11:15:48.935Z,1.15
2023-03-17T11:18:22.564Z,1.30
2023-03-17T11:20:55.933Z,1.10
2023-03-17T11:23:47.375Z,1.27
2023-03-17T11:26:31.194Z,1.00
2023-03-17T11:29:15.390Z,1.20
2023-03-17T11:31:50.315Z,1.13
2023-03-17T11:34:27.312Z,1.00
2023-03-17T11:37:02.255Z,1.00
2023-03-17T11:39:40.632Z,0.98
2023-03-17T11:42:17.074Z,1.00
2023-03-17T11:45:16.363Z,1.10
2023-03-17T11:48:21.372Z,0.90
2023-03-17T11:51:09.899Z,1.17
2023-03-17T11:54:15.907Z,1.15
2023-03-17T11:56:48.815Z,1.02
2023-03-17T11:59:27.238Z,0.82
2023-03-17T12:02:02.146Z,0.95
2023-03-17T12:04:35.200Z,1.10
2023-03-17T12:07:11.878Z,1.00
2023-03-17T12:09:43.146Z,1.17
2023-03-17T12:12:16.029Z,0.93
2023-03-17T12:14:48.613Z,1.08
2023-03-17T12:17:25.122Z,1.30
2023-03-17T12:20:06.679Z,1.10
2023-03-17T12:22:41.377Z,1.00
2023-03-17T12:25:17.986Z,1.27
2023-03-17T12:27:51.075Z,1.23
2023-03-17T12:30:27.885Z,1.27
2023-03-17T12:33:04.674Z,1.38
2023-03-17T12:35:35.190Z,1.45
2023-03-17T12:38:09.986Z,1.23
2023-03-17T12:40:51.258Z,1.23
2023-03-17T12:43:37.152Z,1.25
2023-03-17T12:46:42.423Z,1.40
2023-03-17T12:49:35.778Z,1.20
2023-03-17T12:52:14.342Z,1.40
2023-03-17T12:54:46.723Z,1.50
2023-03-17T12:57:18.784Z,1.23
2023-03-17T12:59:49.453Z,1.30
2023-03-17T13:02:24.649Z,1.20
2023-03-17T13:04:58.020Z,1.30
2023-03-17T13:07:27.913Z,1.35
2023-03-17T13:10:37.121Z,1.10
2023-03-17T13:13:10.056Z,1.30
2023-03-17T13:16:06.606Z,1.35
2023-03-17T13:18:53.300Z,1.27
2023-03-17T13:21:26.252Z,1.00
2023-03-17T13:24:17.961Z,1.10
2023-03-17T13:26:55.558Z,1.00
2023-03-17T13:29:40.881Z,1.10
2023-03-17T13:32:39.675Z,1.58
2023-03-17T13:35:30.678Z,1.35
2023-03-17T13:38:20.137Z,1.67
2023-03-17T13:41:02.897Z,1.17
2023-03-17T13:43:46.246Z,1.20
2023-03-17T13:46:24.351Z,1.13
2023-03-17T13:48:54.682Z,1.33
2023-03-17T13:51:27.139Z,1.65
2023-03-17T13:53:58.993Z,1.20
2023-03-17T13:56:30.336Z,1.20
2023-03-17T13:59:14.122Z,1.00
2023-03-17T14:01:47.854Z,1.40
2023-03-17T14:04:22.477Z,1.40
2023-03-17T14:06:54.541Z,1.45
2023-03-17T14:09:35.180Z,1.27
2023-03-17T14:12:07.735Z,1.55
2023-03-17T14:14:41.982Z,1.30
2023-03-17T14:17:16.438Z,1.13
2023-03-17T14:20:06.283Z,1.33
2023-03-17T14:22:34.194Z,1.52
2023-03-17T14:25:03.813Z,1.40
2023-03-17T14:27:35.220Z,1.40
2023-03-17T14:30:09.717Z,2.97
2023-03-17T14:32:37.679Z,3.08
2023-03-17T14:35:06.976Z,3.22
2023-03-17T14:37:38.435Z,3.40
2023-03-17T14:40:22.412Z,3.22
2023-03-17T14:42:50.911Z,3.20
2023-03-17T14:45:22.696Z,2.83
2023-03-17T14:47:51.869Z,3.05
2023-03-17T14:50:26.143Z,3.58
2023-03-17T14:52:54.291Z,3.10
2023-03-17T14:55:29.788Z,2.92
2023-03-17T14:57:57.912Z,2.80
2023-03-17T15:00:36.260Z,3.25
2023-03-17T15:03:14.833Z,3.22
2023-03-17T15:05:45.308Z,3.30
2023-03-17T15:08:49.524Z,3.38
2023-03-17T15:13:49.754Z,3.20
2023-03-17T15:16:22.618Z,3.35
2023-03-17T15:18:56.043Z,3.22
2023-03-17T15:23:52.649Z,3.20
2023-03-17T15:26:31.600Z,3.70
2023-03-17T15:29:00.815Z,3.22
2023-03-17T15:31:30.073Z,3.47
2023-03-17T15:33:59.055Z,2.85
2023-03-17T15:36:32.843Z,3.17
2023-03-17T15:39:01.682Z,3.42
2023-03-17T15:41:31.295Z,3.10
2023-03-17T15:43:59.207Z,3.17
2023-03-17T15:46:30.999Z,3.05
2023-03-17T15:48:59.419Z,3.10
2023-03-17T15:51:27.737Z,2.80
2023-03-17T15:53:55.927Z,2.78
2023-03-17T15:56:23.854Z,3.00
2023-03-17T15:58:53.326Z,2.83
2023-03-17T16:01:21.850Z,3.22
2023-03-17T16:03:50.353Z,3.22
2023-03-17T16:06:19.758Z,3.00
2023-03-17T16:08:47.804Z,2.78
2023-03-17T16:11:18.586Z,3.17
2023-03-17T16:13:47.470Z,2.85
2023-03-17T16:16:25.182Z,3.22
2023-03-17T16:18:53.473Z,2.40
2023-03-17T16:21:21.669Z,2.50
2023-03-17T16:23:50.261Z,2.58
2023-03-17T16:26:18.159Z,2.65
2023-03-17T16:28:47.605Z,2.47
2023-03-17T16:31:21.648Z,2.80
2023-03-17T16:33:50.227Z,2.50
2023-03-17T16:36:20.355Z,2.30
2023-03-17T16:38:49.056Z,2.30
2023-03-17T16:41:20.429Z,2.67
2023-03-17T16:43:52.545Z,2.47
2023-03-17T16:46:22.929Z,2.40
2023-03-17T16:48:51.775Z,2.47
2023-03-17T16:51:27.614Z,2.50
2023-03-17T16:53:55.526Z,2.47
2023-03-17T16:56:25.756Z,2.20
2023-03-17T16:58:53.776Z,2.40
2023-03-17T17:01:24.393Z,2.65
2023-03-17T17:03:52.493Z,2.35
2023-03-17T17:06:22.289Z,2.60
2023-03-17T17:08:52.632Z,2.78
2023-03-17T17:11:21.381Z,2.20
2023-03-17T17:13:51.699Z,2.55
2023-03-17T17:16:24.412Z,2.55
2023-03-17T17:18:52.511Z,2.80
2023-03-17T17:21:20.536Z,2.97
2023-03-17T17:23:48.526Z,3.13
2023-03-17T17:26:17.784Z,3.17
2023-03-17T17:28:45.796Z,4.03
2023-03-17T17:31:13.825Z,3.63
2023-03-17T17:33:42.051Z,3.55
2023-03-17T17:36:14.902Z,3.20
2023-03-17T17:38:43.542Z,3.67
2023-03-17T17:41:12.889Z,3.55
2023-03-17T17:43:42.401Z,3.53
2023-03-17T17:46:12.736Z,4.10
2023-03-17T17:48:40.928Z,5.03
2023-03-17T17:51:08.889Z,4.07
2023-03-17T17:53:36.889Z,4.00
2023-03-17T17:56:05.676Z,3.53
2023-03-17T17:58:34.020Z,3.70
2023-03-17T18:01:05.483Z,3.60
2023-03-17T18:03:33.966Z,3.50
2023-03-17T18:06:01.996Z,4.07
2023-03-17T18:08:29.918Z,3.60
2023-03-17T18:10:57.865Z,3.58
2023-03-17T18:13:25.870Z,3.95
2023-03-17T18:15:53.945Z,3.90
2023-03-17T18:18:24.034Z,3.78
2023-03-17T18:20:53.085Z,3.83
2023-03-17T18:23:21.579Z,3.60
2023-03-17T18:25:49.684Z,3.85
2023-03-17T18:28:17.929Z,4.30
2023-03-17T18:30:46.046Z,3.90
2023-03-17T18:33:18.295Z,4.03
2023-03-17T18:35:52.154Z,3.63
2023-03-17T18:38:20.595Z,3.65
2023-03-17T18:40:48.626Z,3.78
2023-03-17T18:43:16.607Z,3.67
2023-03-17T18:45:44.632Z,3.92
2023-03-17T18:48:12.603Z,4.80
2023-03-17T18:50:40.816Z,4.32
2023-03-17T18:53:10.127Z,4.50
2023-03-17T18:55:38.031Z,4.20
2023-03-17T18:58:06.316Z,3.70
2023-03-17T19:00:34.413Z,4.53
2023-03-17T19:03:02.313Z,5.00
2023-03-17T19:05:30.355Z,4.30
2023-03-17T19:07:58.425Z,4.30
2023-03-17T19:10:27.751Z,3.90
2023-03-17T19:12:56.133Z,4.00
2023-03-17T19:15:24.273Z,4.43
2023-03-17T19:17:52.471Z,4.10
2023-03-17T19:20:20.727Z,4.07
2023-03-17T19:22:48.727Z,4.13
2023-03-17T19:25:18.065Z,4.75
2023-03-17T19:27:47.393Z,5.13
2023-03-17T19:30:15.899Z,4.60
2023-03-17T19:32:43.880Z,4.50
2023-03-17T19:35:12.171Z,4.70
2023-03-17T19:37:40.574Z,5.07
2023-03-17T19:40:10.568Z,5.00
2023-03-17T19:42:38.572Z,4.80
2023-03-17T19:45:09.289Z,4.80
2023-03-17T19:47:37.291Z,4.40
2023-03-17T19:50:07.104Z,5.07
2023-03-17T19:52:37.129Z,4.97
2023-03-17T19:55:08.132Z,5.10
2023-03-17T19:57:36.848Z,5.00
2023-03-17T20:00:08.835Z,5.22
2023-03-17T20:02:39.239Z,5.60
2023-03-17T20:05:08.378Z,4.95
2023-03-17T20:07:37.186Z,6.28
2023-03-17T20:10:08.214Z,5.72
2023-03-17T20:12:37.966Z,5.60
2023-03-17T20:15:07.756Z,6.13
2023-03-17T20:17:36.162Z,6.25
2023-03-17T20:20:07.244Z,5.40
2023-03-17T20:22:35.401Z,4.97
2023-03-17T20:25:03.358Z,6.60
2023-03-17T20:27:32.123Z,5.97
2023-03-17T20:30:00.119Z,6.40
2023-03-17T20:32:29.892Z,6.55
2023-03-17T20:34:58.200Z,6.05
2023-03-17T20:37:27.746Z,6.30
2023-03-17T20:39:57.422Z,6.50
2023-03-17T20:42:25.796Z,5.50
2023-03-17T20:44:53.684Z,6.30
2023-03-17T20:47:22.047Z,8.05
2023-03-17T20:49:50.643Z,7.10
2023-03-17T20:52:18.657Z,6.82
2023-03-17T20:54:48.649Z,6.07
2023-03-17T20:57:16.613Z,6.30
2023-03-17T20:59:45.156Z,6.55
2023-03-17T21:02:15.798Z,6.60
2023-03-17T21:04:46.704Z,6.25
2023-03-17T21:07:15.545Z,6.72
2023-03-17T21:09:44.200Z,6.18
2023-03-17T21:12:15.929Z,6.70
2023-03-17T21:14:44.108Z,6.53
2023-03-17T21:17:12.731Z,5.90
2023-03-17T21:19:41.743Z,6.03
2023-03-17T21:22:09.649Z,6.50
2023-03-17T21:24:39.780Z,6.18
2023-03-17T21:27:11.279Z,5.68
2023-03-17T21:29:40.983Z,6.03
2023-03-17T21:32:09.433Z,5.63
2023-03-17T21:34:38.282Z,5.72
2023-03-17T21:37:06.564Z,5.38
2023-03-17T21:39:36.131Z,5.60
2023-03-17T21:42:04.171Z,5.43
2023-03-17T21:44:33.060Z,5.82
2023-03-17T21:47:03.358Z,5.82
2023-03-17T21:49:31.573Z,5.93
2023-03-17T21:51:59.493Z,5.72
2023-03-17T21:54:28.381Z,5.75
2023-03-17T21:56:58.549Z,5.90
2023-03-17T21:59:30.799Z,5.93
2023-03-17T22:01:59.643Z,5.70
2023-03-17T22:04:29.207Z,5.10
2023-03-17T22:06:58.796Z,5.38
2023-03-17T22:09:26.796Z,5.82
2023-03-17T22:11:55.042Z,5.13
2023-03-17T22:14:23.353Z,5.22
2023-03-17T22:16:52.182Z,5.72
2023-03-17T22:19:21.337Z,4.90
2023-03-17T22:21:51.647Z,5.40
2023-03-17T22:24:19.621Z,5.15
2023-03-17T22:26:47.569Z,4.93
2023-03-17T22:29:16.086Z,5.47
2023-03-17T22:31:44.162Z,4.97
2023-03-17T22:34:12.141Z,5.18
2023-03-17T22:36:40.142Z,5.57
2023-03-17T22:39:10.787Z,5.45
2023-03-17T22:41:39.410Z,5.93
2023-03-17T22:44:09.153Z,5.28
2023-03-17T22:46:37.379Z,5.65
2023-03-17T22:49:05.988Z,5.55
2023-03-17T22:51:33.949Z,5.45
2023-03-17T22:54:01.933Z,4.57
2023-03-17T22:56:31.309Z,5.57
2023-03-17T22:58:59.328Z,4.88
2023-03-17T23:01:27.660Z,5.05
2023-03-17T23:03:56.209Z,4.70
2023-03-17T23:06:24.658Z,5.07
2023-03-17T23:08:52.781Z,4.57
2023-03-17T23:11:23.205Z,4.80
2023-03-17T23:13:53.720Z,5.15
2023-03-17T23:16:22.536Z,4.80
2023-03-17T23:18:50.893Z,4.22
2023-03-17T23:21:23.142Z,4.45
2023-03-17T23:23:51.501Z,4.80
2023-03-17T23:26:19.425Z,4.72
2023-03-17T23:28:47.680Z,4.70
2023-03-17T23:31:19.320Z,4.78
2023-03-17T23:33:47.838Z,5.22
2023-03-17T23:36:17.005Z,5.20
2023-03-17T23:38:45.751Z,4.63
2023-03-17T23:41:14.570Z,5.03
2023-03-17T23:43:43.957Z,4.57
2023-03-17T23:46:12.995Z,5.20
2023-03-17T23:48:42.877Z,4.53
2023-03-17T23:51:12.300Z,4.82
2023-03-17T23:53:42.920Z,4.78
2023-03-17T23:56:13.198Z,4.68
2023-03-17T23:58:43.209Z,4.85
